sensor_id;sensor_type;location;lat;lon;timestamp;pressure;altitude;pressure_sealevel;temperature;humidity
81812;BME280;71243;51.848;5.768;2023-07-31T00:01:14;101074.63;;;15.36;89.57
81812;BME280;71243;51.848;5.768;2023-07-31T00:03:39;101075.78;;;15.50;89.26
81812;BME280;71243;51.848;5.768;2023-07-31T00:06:04;101066.75;;;15.51;88.98
81812;BME280;71243;51.848;5.768;2023-07-31T00:08:30;101070.06;;;15.61;88.88
81812;BME280;71243;51.848;5.768;2023-07-31T00:10:55;101057.38;;;15.63;89.05
81812;BME280;71243;51.848;5.768;2023-07-31T00:13:20;101060.22;;;15.61;88.98
81812;BME280;71243;51.848;5.768;2023-07-31T00:15:45;101057.72;;;15.60;89.49
81812;BME280;71243;51.848;5.768;2023-07-31T00:18:11;101057.44;;;15.55;90.28
81812;BME280;71243;51.848;5.768;2023-07-31T00:20:36;101057.03;;;15.66;90.59
81812;BME280;71243;51.848;5.768;2023-07-31T00:23:01;101047.66;;;15.70;90.88
81812;BME280;71243;51.848;5.768;2023-07-31T00:25:26;101049.09;;;15.80;90.86
81812;BME280;71243;51.848;5.768;2023-07-31T00:27:52;101054.38;;;15.88;90.70
81812;BME280;71243;51.848;5.768;2023-07-31T00:30:17;101051.66;;;15.96;90.75
81812;BME280;71243;51.848;5.768;2023-07-31T00:32:42;101044.28;;;16.06;90.27
81812;BME280;71243;51.848;5.768;2023-07-31T00:35:07;101038.84;;;16.14;89.65
81812;BME280;71243;51.848;5.768;2023-07-31T00:37:33;101042.81;;;16.18;89.92
81812;BME280;71243;51.848;5.768;2023-07-31T00:39:58;101035.97;;;16.24;89.43
81812;BME280;71243;51.848;5.768;2023-07-31T00:42:24;101035.97;;;16.24;89.88
81812;BME280;71243;51.848;5.768;2023-07-31T00:44:49;101037.88;;;16.30;89.22
81812;BME280;71243;51.848;5.768;2023-07-31T00:47:15;101037.03;;;16.29;89.15
81812;BME280;71243;51.848;5.768;2023-07-31T00:49:40;101042.69;;;16.34;88.66
81812;BME280;71243;51.848;5.768;2023-07-31T00:52:06;101039.66;;;16.37;88.76
81812;BME280;71243;51.848;5.768;2023-07-31T00:54:31;101035.25;;;16.44;88.89
81812;BME280;71243;51.848;5.768;2023-07-31T00:56:57;101042.78;;;16.41;88.46
81812;BME280;71243;51.848;5.768;2023-07-31T00:59:22;101032.78;;;16.43;88.24
81812;BME280;71243;51.848;5.768;2023-07-31T01:01:48;101037.28;;;16.42;88.47
81812;BME280;71243;51.848;5.768;2023-07-31T01:04:13;101029.81;;;16.38;88.11
81812;BME280;71243;51.848;5.768;2023-07-31T01:07:10;101031.84;;;16.36;88.30
81812;BME280;71243;51.848;5.768;2023-07-31T01:09:48;101032.03;;;16.34;88.06
81812;BME280;71243;51.848;5.768;2023-07-31T01:12:18;101029.97;;;16.36;88.30
81812;BME280;71243;51.848;5.768;2023-07-31T01:15:11;101030.34;;;16.33;88.19
81812;BME280;71243;51.848;5.768;2023-07-31T01:17:38;101031.66;;;16.37;88.39
81812;BME280;71243;51.848;5.768;2023-07-31T01:20:05;101023.47;;;16.39;87.86
81812;BME280;71243;51.848;5.768;2023-07-31T01:28:07;101033.66;;;16.35;87.36
81812;BME280;71243;51.848;5.768;2023-07-31T01:30:37;101027.25;;;16.44;87.29
81812;BME280;71243;51.848;5.768;2023-07-31T01:33:06;101025.75;;;16.42;87.31
81812;BME280;71243;51.848;5.768;2023-07-31T01:35:36;101023.28;;;16.40;87.00
81812;BME280;71243;51.848;5.768;2023-07-31T01:38:01;101020.81;;;16.39;87.17
81812;BME280;71243;51.848;5.768;2023-07-31T01:40:27;101016.31;;;16.39;86.91
81812;BME280;71243;51.848;5.768;2023-07-31T01:42:52;101015.66;;;16.37;86.79
81812;BME280;71243;51.848;5.768;2023-07-31T01:45:17;101021.81;;;16.38;87.35
81812;BME280;71243;51.848;5.768;2023-07-31T01:47:43;101021.16;;;16.36;87.33
81812;BME280;71243;51.848;5.768;2023-07-31T01:50:08;101010.50;;;16.36;86.67
81812;BME280;71243;51.848;5.768;2023-07-31T01:52:34;101011.31;;;16.36;86.72
81812;BME280;71243;51.848;5.768;2023-07-31T01:54:59;101009.28;;;16.38;86.95
81812;BME280;71243;51.848;5.768;2023-07-31T01:57:24;101009.28;;;16.38;87.17
81812;BME280;71243;51.848;5.768;2023-07-31T01:59:49;101002.84;;;16.33;86.70
81812;BME280;71243;51.848;5.768;2023-07-31T02:02:15;101002.84;;;16.33;87.13
81812;BME280;71243;51.848;5.768;2023-07-31T02:04:41;101007.84;;;16.36;86.93
81812;BME280;71243;51.848;5.768;2023-07-31T02:07:06;101003.69;;;16.33;86.92
81812;BME280;71243;51.848;5.768;2023-07-31T02:09:31;101000.03;;;16.34;86.64
81812;BME280;71243;51.848;5.768;2023-07-31T02:11:56;100996.53;;;16.34;86.68
81812;BME280;71243;51.848;5.768;2023-07-31T02:14:22;100995.78;;;16.40;86.56
81812;BME280;71243;51.848;5.768;2023-07-31T02:16:47;100996.16;;;16.37;86.67
81812;BME280;71243;51.848;5.768;2023-07-31T02:19:12;100988.53;;;16.34;87.39
81812;BME280;71243;51.848;5.768;2023-07-31T02:21:37;100986.50;;;16.36;86.74
81812;BME280;71243;51.848;5.768;2023-07-31T02:24:03;100983.38;;;16.32;86.49
81812;BME280;71243;51.848;5.768;2023-07-31T02:26:28;100971.88;;;16.32;86.59
81812;BME280;71243;51.848;5.768;2023-07-31T02:28:53;100977.19;;;16.32;86.84
81812;BME280;71243;51.848;5.768;2023-07-31T02:31:18;100975.56;;;16.31;86.82
81812;BME280;71243;51.848;5.768;2023-07-31T02:33:44;100989.69;;;16.31;86.48
81812;BME280;71243;51.848;5.768;2023-07-31T02:36:09;100973.88;;;16.30;86.74
81812;BME280;71243;51.848;5.768;2023-07-31T02:38:34;100977.38;;;16.30;86.74
81812;BME280;71243;51.848;5.768;2023-07-31T02:40:59;100965.50;;;16.33;86.44
81812;BME280;71243;51.848;5.768;2023-07-31T02:43:24;100963.03;;;16.31;86.28
81812;BME280;71243;51.848;5.768;2023-07-31T02:45:53;100963.41;;;16.28;86.49
81812;BME280;71243;51.848;5.768;2023-07-31T02:48:19;100965.88;;;16.30;86.42
81812;BME280;71243;51.848;5.768;2023-07-31T02:50:45;100964.88;;;16.31;86.04
81812;BME280;71243;51.848;5.768;2023-07-31T02:53:10;100968.63;;;16.36;85.81
81812;BME280;71243;51.848;5.768;2023-07-31T02:55:35;100964.50;;;16.34;85.17
81812;BME280;71243;51.848;5.768;2023-07-31T02:58:01;100967.38;;;16.32;85.75
81812;BME280;71243;51.848;5.768;2023-07-31T03:00:26;100972.69;;;16.32;85.66
81812;BME280;71243;51.848;5.768;2023-07-31T03:02:51;100966.34;;;16.33;85.13
81812;BME280;71243;51.848;5.768;2023-07-31T03:05:16;100971.88;;;16.32;84.98
81812;BME280;71243;51.848;5.768;2023-07-31T03:07:42;100961.84;;;16.34;85.07
81812;BME280;71243;51.848;5.768;2023-07-31T03:10:07;100967.38;;;16.32;84.73
81812;BME280;71243;51.848;5.768;2023-07-31T03:12:33;100965.69;;;16.31;85.51
81812;BME280;71243;51.848;5.768;2023-07-31T03:14:58;100965.50;;;16.33;85.32
81812;BME280;71243;51.848;5.768;2023-07-31T03:17:23;100970.69;;;16.34;84.74
81812;BME280;71243;51.848;5.768;2023-07-31T03:19:48;100969.38;;;16.30;84.65
81812;BME280;71243;51.848;5.768;2023-07-31T03:22:14;100976.38;;;16.31;84.11
81812;BME280;71243;51.848;5.768;2023-07-31T03:24:39;100969.56;;;16.29;84.15
81812;BME280;71243;51.848;5.768;2023-07-31T03:27:04;100975.44;;;16.24;84.19
81812;BME280;71243;51.848;5.768;2023-07-31T03:29:30;100972.94;;;16.23;84.03
81812;BME280;71243;51.848;5.768;2023-07-31T03:31:55;100968.19;;;16.18;83.78
81812;BME280;71243;51.848;5.768;2023-07-31T03:34:20;100954.84;;;16.18;84.26
81812;BME280;71243;51.848;5.768;2023-07-31T03:36:46;100956.31;;;16.21;83.94
81812;BME280;71243;51.848;5.768;2023-07-31T03:39:11;100953.00;;;16.19;83.63
81812;BME280;71243;51.848;5.768;2023-07-31T03:41:36;100963.19;;;16.15;84.06
81812;BME280;71243;51.848;5.768;2023-07-31T03:44:01;100960.06;;;16.12;84.14
81812;BME280;71243;51.848;5.768;2023-07-31T03:46:27;100948.22;;;16.14;83.96
81812;BME280;71243;51.848;5.768;2023-07-31T03:48:52;100942.03;;;16.14;84.25
81812;BME280;71243;51.848;5.768;2023-07-31T03:51:17;100947.38;;;16.14;83.96
81812;BME280;71243;51.848;5.768;2023-07-31T03:53:43;100947.38;;;16.14;83.58
81812;BME280;71243;51.848;5.768;2023-07-31T03:56:09;100946.19;;;16.16;83.90
81812;BME280;71243;51.848;5.768;2023-07-31T03:58:34;100952.72;;;16.14;83.82
81812;BME280;71243;51.848;5.768;2023-07-31T04:00:59;100941.41;;;16.12;83.95
81812;BME280;71243;51.848;5.768;2023-07-31T04:03:24;100949.25;;;16.13;83.29
81812;BME280;71243;51.848;5.768;2023-07-31T04:05:50;100937.75;;;16.13;83.46
81812;BME280;71243;51.848;5.768;2023-07-31T04:08:15;100939.38;;;16.14;83.45
81812;BME280;71243;51.848;5.768;2023-07-31T04:10:40;100942.59;;;16.09;83.37
81812;BME280;71243;51.848;5.768;2023-07-31T04:13:05;100938.72;;;16.12;83.21
81812;BME280;71243;51.848;5.768;2023-07-31T04:15:31;100932.41;;;16.13;82.97
81812;BME280;71243;51.848;5.768;2023-07-31T04:17:56;100933.41;;;16.12;83.55
81812;BME280;71243;51.848;5.768;2023-07-31T04:20:21;100929.75;;;16.13;82.92
81812;BME280;71243;51.848;5.768;2023-07-31T04:22:46;100934.22;;;16.12;83.42
81812;BME280;71243;51.848;5.768;2023-07-31T04:25:12;100927.72;;;16.15;82.57
81812;BME280;71243;51.848;5.768;2023-07-31T04:27:37;100916.50;;;16.19;83.08
81812;BME280;71243;51.848;5.768;2023-07-31T04:30:02;100929.47;;;16.22;82.62
81812;BME280;71243;51.848;5.768;2023-07-31T04:32:28;100917.72;;;16.17;83.03
81812;BME280;71243;51.848;5.768;2023-07-31T04:34:53;100921.19;;;16.17;82.96
81812;BME280;71243;51.848;5.768;2023-07-31T04:37:18;100918.97;;;16.21;82.84
81812;BME280;71243;51.848;5.768;2023-07-31T04:39:43;100910.97;;;16.21;82.99
81812;BME280;71243;51.848;5.768;2023-07-31T04:42:09;100912.75;;;16.28;82.58
81812;BME280;71243;51.848;5.768;2023-07-31T04:44:35;100906.75;;;16.26;83.04
81812;BME280;71243;51.848;5.768;2023-07-31T04:47:00;100902.06;;;16.28;82.68
81812;BME280;71243;51.848;5.768;2023-07-31T04:49:25;100906.09;;;16.24;82.93
81812;BME280;71243;51.848;5.768;2023-07-31T04:51:51;100909.63;;;16.25;83.23
81812;BME280;71243;51.848;5.768;2023-07-31T04:54:16;100900.31;;;16.21;83.52
81812;BME280;71243;51.848;5.768;2023-07-31T04:56:41;100906.28;;;16.23;83.76
81812;BME280;71243;51.848;5.768;2023-07-31T04:59:07;100907.50;;;16.20;83.75
81812;BME280;71243;51.848;5.768;2023-07-31T05:01:32;100909.81;;;16.23;83.02
81812;BME280;71243;51.848;5.768;2023-07-31T05:03:57;100905.31;;;16.24;83.42
81812;BME280;71243;51.848;5.768;2023-07-31T05:06:22;100908.59;;;16.26;83.29
81812;BME280;71243;51.848;5.768;2023-07-31T05:08:48;100900.44;;;16.27;83.10
81812;BME280;71243;51.848;5.768;2023-07-31T05:11:13;100903.44;;;16.24;83.70
81812;BME280;71243;51.848;5.768;2023-07-31T05:13:38;100902.19;;;16.20;83.88
81812;BME280;71243;51.848;5.768;2023-07-31T05:16:03;100890.50;;;16.21;84.61
81812;BME280;71243;51.848;5.768;2023-07-31T05:18:29;100899.03;;;16.17;85.10
81812;BME280;71243;51.848;5.768;2023-07-31T05:20:54;100886.53;;;16.17;85.09
81812;BME280;71243;51.848;5.768;2023-07-31T05:23:19;100887.00;;;16.21;85.45
81812;BME280;71243;51.848;5.768;2023-07-31T05:25:45;100886.72;;;16.16;85.86
81812;BME280;71243;51.848;5.768;2023-07-31T05:28:11;100889.84;;;16.19;85.86
81812;BME280;71243;51.848;5.768;2023-07-31T05:30:37;100878.19;;;16.20;86.03
81812;BME280;71243;51.848;5.768;2023-07-31T05:33:02;100880.19;;;16.18;86.44
81812;BME280;71243;51.848;5.768;2023-07-31T05:35:27;100878.19;;;16.20;86.30
81812;BME280;71243;51.848;5.768;2023-07-31T05:37:53;100878.78;;;16.22;86.49
81812;BME280;71243;51.848;5.768;2023-07-31T05:40:18;100881.66;;;16.21;86.93
81812;BME280;71243;51.848;5.768;2023-07-31T05:42:43;100877.88;;;16.15;87.73
81812;BME280;71243;51.848;5.768;2023-07-31T05:45:09;100882.75;;;16.12;88.46
81812;BME280;71243;51.848;5.768;2023-07-31T05:47:34;100871.63;;;16.08;88.76
81812;BME280;71243;51.848;5.768;2023-07-31T05:49:59;100876.63;;;16.11;88.51
81812;BME280;71243;51.848;5.768;2023-07-31T05:52:24;100876.63;;;16.11;88.92
81812;BME280;71243;51.848;5.768;2023-07-31T05:54:50;100875.78;;;16.11;89.19
81812;BME280;71243;51.848;5.768;2023-07-31T05:57:15;100875.13;;;16.09;89.83
81812;BME280;71243;51.848;5.768;2023-07-31T05:59:40;100861.63;;;16.10;89.40
81812;BME280;71243;51.848;5.768;2023-07-31T06:02:06;100858.94;;;16.10;89.79
81812;BME280;71243;51.848;5.768;2023-07-31T06:04:31;100855.94;;;16.13;89.85
81812;BME280;71243;51.848;5.768;2023-07-31T06:06:56;100861.25;;;16.13;89.90
81812;BME280;71243;51.848;5.768;2023-07-31T06:09:21;100856.66;;;16.07;89.97
81812;BME280;71243;51.848;5.768;2023-07-31T06:11:47;100854.81;;;16.08;89.98
81812;BME280;71243;51.848;5.768;2023-07-31T06:14:12;100850.75;;;16.12;90.33
81812;BME280;71243;51.848;5.768;2023-07-31T06:16:37;100844.97;;;16.08;90.50
81812;BME280;71243;51.848;5.768;2023-07-31T06:19:03;100839.94;;;16.13;90.24
81812;BME280;71243;51.848;5.768;2023-07-31T06:21:28;100839.56;;;16.16;90.19
81812;BME280;71243;51.848;5.768;2023-07-31T06:23:53;100830.34;;;16.19;90.17
81812;BME280;71243;51.848;5.768;2023-07-31T06:26:19;100826.50;;;16.21;90.48
81812;BME280;71243;51.848;5.768;2023-07-31T06:28:44;100828.78;;;16.24;90.33
81812;BME280;71243;51.848;5.768;2023-07-31T06:31:09;100820.44;;;16.27;90.19
81812;BME280;71243;51.848;5.768;2023-07-31T06:33:35;100827.41;;;16.28;90.02
81812;BME280;71243;51.848;5.768;2023-07-31T06:36:00;100822.28;;;16.27;90.29
81812;BME280;71243;51.848;5.768;2023-07-31T06:38:26;100819.41;;;16.28;90.26
81812;BME280;71243;51.848;5.768;2023-07-31T06:40:51;100810.97;;;16.25;90.23
81812;BME280;71243;51.848;5.768;2023-07-31T06:43:17;100815.47;;;16.24;91.03
81812;BME280;71243;51.848;5.768;2023-07-31T06:45:42;100809.78;;;16.27;90.84
81812;BME280;71243;51.848;5.768;2023-07-31T06:48:07;100799.47;;;16.24;91.64
81812;BME280;71243;51.848;5.768;2023-07-31T06:50:32;100796.06;;;16.30;90.48
81812;BME280;71243;51.848;5.768;2023-07-31T06:52:58;100795.50;;;16.35;90.57
81812;BME280;71243;51.848;5.768;2023-07-31T06:55:26;100795.28;;;16.36;90.42
81812;BME280;71243;51.848;5.768;2023-07-31T06:57:53;100791.81;;;16.36;90.82
81812;BME280;71243;51.848;5.768;2023-07-31T07:00:20;100794.03;;;16.32;90.63
81812;BME280;71243;51.848;5.768;2023-07-31T07:02:46;100790.53;;;16.32;91.07
81812;BME280;71243;51.848;5.768;2023-07-31T07:05:11;100795.88;;;16.32;91.44
81812;BME280;71243;51.848;5.768;2023-07-31T07:07:36;100792.38;;;16.31;91.72
81812;BME280;71243;51.848;5.768;2023-07-31T07:10:03;100786.03;;;16.32;91.34
81812;BME280;71243;51.848;5.768;2023-07-31T07:12:29;100786.31;;;16.37;91.70
81812;BME280;71243;51.848;5.768;2023-07-31T07:14:55;100789.97;;;16.36;91.17
81812;BME280;71243;51.848;5.768;2023-07-31T07:17:20;100796.59;;;16.40;91.49
81812;BME280;71243;51.848;5.768;2023-07-31T07:19:45;100789.53;;;16.48;91.08
81812;BME280;71243;51.848;5.768;2023-07-31T07:22:10;100777.03;;;16.48;91.07
81812;BME280;71243;51.848;5.768;2023-07-31T07:24:35;100777.22;;;16.47;91.82
81812;BME280;71243;51.848;5.768;2023-07-31T07:27:01;100770.84;;;16.48;91.22
81812;BME280;71243;51.848;5.768;2023-07-31T07:29:26;100776.00;;;16.49;91.73
81812;BME280;71243;51.848;5.768;2023-07-31T07:31:51;100780.34;;;16.50;91.54
81812;BME280;71243;51.848;5.768;2023-07-31T07:34:16;100778.66;;;16.49;91.88
81812;BME280;71243;51.848;5.768;2023-07-31T07:36:42;100775.81;;;16.51;91.98
81812;BME280;71243;51.848;5.768;2023-07-31T07:39:09;100775.44;;;16.54;91.37
81812;BME280;71243;51.848;5.768;2023-07-31T07:41:35;100776.69;;;16.58;91.24
81812;BME280;71243;51.848;5.768;2023-07-31T07:44:00;100778.31;;;16.52;91.25
81812;BME280;71243;51.848;5.768;2023-07-31T07:46:25;100770.31;;;16.52;91.07
81812;BME280;71243;51.848;5.768;2023-07-31T07:48:50;100775.19;;;16.49;91.32
81812;BME280;71243;51.848;5.768;2023-07-31T07:51:15;100778.91;;;16.54;91.28
81812;BME280;71243;51.848;5.768;2023-07-31T07:53:41;100759.88;;;16.57;91.25
81812;BME280;71243;51.848;5.768;2023-07-31T07:56:06;100772.59;;;16.55;91.28
81812;BME280;71243;51.848;5.768;2023-07-31T07:58:31;100774.31;;;16.63;91.18
81812;BME280;71243;51.848;5.768;2023-07-31T08:00:56;100768.34;;;16.61;91.45
81812;BME280;71243;51.848;5.768;2023-07-31T08:03:22;100762.22;;;16.67;90.65
81812;BME280;71243;51.848;5.768;2023-07-31T08:05:47;100772.53;;;16.70;90.61
81812;BME280;71243;51.848;5.768;2023-07-31T08:08:15;100754.22;;;16.67;91.07
81812;BME280;71243;51.848;5.768;2023-07-31T08:10:41;100753.03;;;16.69;91.21
81812;BME280;71243;51.848;5.768;2023-07-31T08:13:06;100771.06;;;16.67;91.09
81812;BME280;71243;51.848;5.768;2023-07-31T08:15:31;100757.34;;;16.70;91.20
81812;BME280;71243;51.848;5.768;2023-07-31T08:17:57;100756.97;;;16.73;90.94
81812;BME280;71243;51.848;5.768;2023-07-31T08:20:22;100759.38;;;16.68;91.23
81812;BME280;71243;51.848;5.768;2023-07-31T08:22:47;100756.97;;;16.73;90.62
81812;BME280;71243;51.848;5.768;2023-07-31T08:25:12;100752.09;;;16.77;90.69
81812;BME280;71243;51.848;5.768;2023-07-31T08:27:37;100754.69;;;16.70;89.97
81812;BME280;71243;51.848;5.768;2023-07-31T08:30:03;100748.53;;;16.70;90.79
81812;BME280;71243;51.848;5.768;2023-07-31T08:32:28;100757.53;;;16.69;91.17
81812;BME280;71243;51.848;5.768;2023-07-31T08:34:54;100750.75;;;16.66;91.27
81812;BME280;71243;51.848;5.768;2023-07-31T08:37:19;100759.84;;;16.72;91.13
81812;BME280;71243;51.848;5.768;2023-07-31T08:39:44;100750.81;;;16.73;90.98
81812;BME280;71243;51.848;5.768;2023-07-31T08:42:09;100750.81;;;16.73;90.99
81812;BME280;71243;51.848;5.768;2023-07-31T08:44:35;100744.09;;;16.77;91.09
81812;BME280;71243;51.848;5.768;2023-07-31T08:47:01;100744.72;;;16.79;91.54
81812;BME280;71243;51.848;5.768;2023-07-31T08:49:27;100757.22;;;16.78;91.88
81812;BME280;71243;51.848;5.768;2023-07-31T08:51:52;100754.81;;;16.83;91.25
81812;BME280;71243;51.848;5.768;2023-07-31T08:54:19;100755.56;;;16.77;91.24
81812;BME280;71243;51.848;5.768;2023-07-31T08:56:45;100753.53;;;16.79;91.23
81812;BME280;71243;51.848;5.768;2023-07-31T08:59:11;100760.34;;;16.82;91.50
81812;BME280;71243;51.848;5.768;2023-07-31T09:01:42;100757.69;;;16.82;90.83
81812;BME280;71243;51.848;5.768;2023-07-31T09:04:09;100756.84;;;16.81;91.10
81812;BME280;71243;51.848;5.768;2023-07-31T09:06:35;100753.53;;;16.79;91.10
81812;BME280;71243;51.848;5.768;2023-07-31T09:09:01;100756.41;;;16.78;91.61
81812;BME280;71243;51.848;5.768;2023-07-31T09:11:27;100752.53;;;16.80;91.69
81812;BME280;71243;51.848;5.768;2023-07-31T09:13:52;100756.00;;;16.81;91.13
81812;BME280;71243;51.848;5.768;2023-07-31T09:16:18;100758.06;;;16.79;91.05
81812;BME280;71243;51.848;5.768;2023-07-31T09:18:53;100750.69;;;16.81;90.56
81812;BME280;71243;51.848;5.768;2023-07-31T09:21:19;100753.63;;;16.86;90.44
81812;BME280;71243;51.848;5.768;2023-07-31T09:23:45;100747.91;;;16.89;90.21
81812;BME280;71243;51.848;5.768;2023-07-31T09:26:11;100752.41;;;16.88;90.59
81812;BME280;71243;51.848;5.768;2023-07-31T09:28:53;100753.00;;;16.84;90.68
81812;BME280;71243;51.848;5.768;2023-07-31T09:31:52;100744.19;;;16.90;90.07
81812;BME280;71243;51.848;5.768;2023-07-31T09:34:16;100736.00;;;16.91;90.38
81812;BME280;71243;51.848;5.768;2023-07-31T09:36:43;100743.44;;;16.96;90.28
81812;BME280;71243;51.848;5.768;2023-07-31T09:39:10;100734.41;;;16.97;89.66
81812;BME280;71243;51.848;5.768;2023-07-31T09:41:39;100732.38;;;16.99;90.40
81812;BME280;71243;51.848;5.768;2023-07-31T09:44:05;100736.06;;;16.98;90.11
81812;BME280;71243;51.848;5.768;2023-07-31T09:46:30;100731.19;;;17.01;89.67
81812;BME280;71243;51.848;5.768;2023-07-31T09:49:08;100719.50;;;17.09;89.30
81812;BME280;71243;51.848;5.768;2023-07-31T09:51:34;100721.81;;;17.12;88.80
81812;BME280;71243;51.848;5.768;2023-07-31T09:54:00;100712.38;;;17.16;88.27
81812;BME280;71243;51.848;5.768;2023-07-31T09:56:26;100719.19;;;17.18;88.92
81812;BME280;71243;51.848;5.768;2023-07-31T09:58:52;100717.59;;;17.24;88.72
81812;BME280;71243;51.848;5.768;2023-07-31T10:01:18;100723.94;;;17.23;88.83
81812;BME280;71243;51.848;5.768;2023-07-31T10:03:45;100715.75;;;17.24;89.02
81812;BME280;71243;51.848;5.768;2023-07-31T10:06:11;100721.34;;;17.29;88.57
81812;BME280;71243;51.848;5.768;2023-07-31T10:08:38;100714.56;;;17.33;89.08
81812;BME280;71243;51.848;5.768;2023-07-31T10:11:04;100714.41;;;17.35;87.25
81812;BME280;71243;51.848;5.768;2023-07-31T10:13:31;100712.31;;;17.37;88.43
81812;BME280;71243;51.848;5.768;2023-07-31T10:15:59;100710.09;;;17.40;87.80
81812;BME280;71243;51.848;5.768;2023-07-31T10:18:25;100718.00;;;17.48;88.18
81812;BME280;71243;51.848;5.768;2023-07-31T10:20:51;100712.88;;;17.53;87.60
81812;BME280;71243;51.848;5.768;2023-07-31T10:23:17;100715.22;;;17.63;87.71
81812;BME280;71243;51.848;5.768;2023-07-31T10:25:43;100710.72;;;17.70;87.10
81812;BME280;71243;51.848;5.768;2023-07-31T10:28:10;100713.44;;;17.77;87.16
81812;BME280;71243;51.848;5.768;2023-07-31T10:30:37;100709.53;;;17.79;86.61
81812;BME280;71243;51.848;5.768;2023-07-31T10:33:03;100705.88;;;17.87;86.42
81812;BME280;71243;51.848;5.768;2023-07-31T10:35:28;100716.41;;;17.95;86.45
81812;BME280;71243;51.848;5.768;2023-07-31T10:37:53;100701.78;;;17.97;85.92
81812;BME280;71243;51.848;5.768;2023-07-31T10:40:23;100705.31;;;17.98;85.95
81812;BME280;71243;51.848;5.768;2023-07-31T10:45:33;100708.22;;;18.09;85.51
81812;BME280;71243;51.848;5.768;2023-07-31T10:47:59;100708.22;;;18.09;84.79
81812;BME280;71243;51.848;5.768;2023-07-31T10:50:25;100703.28;;;18.13;85.05
81812;BME280;71243;51.848;5.768;2023-07-31T10:52:53;100700.44;;;18.14;85.94
81812;BME280;71243;51.848;5.768;2023-07-31T10:55:31;100708.25;;;18.16;85.52
81812;BME280;71243;51.848;5.768;2023-07-31T10:58:05;100705.59;;;18.16;84.63
81812;BME280;71243;51.848;5.768;2023-07-31T11:00:30;100696.09;;;18.13;85.72
81812;BME280;71243;51.848;5.768;2023-07-31T11:03:17;100708.25;;;18.16;85.61
81812;BME280;71243;51.848;5.768;2023-07-31T11:08:28;100692.81;;;18.11;84.89
81812;BME280;71243;51.848;5.768;2023-07-31T11:13:29;100703.28;;;18.06;85.81
81812;BME280;71243;51.848;5.768;2023-07-31T11:15:55;100695.88;;;18.08;86.05
81812;BME280;71243;51.848;5.768;2023-07-31T11:18:20;100701.00;;;18.03;85.87
81812;BME280;71243;51.848;5.768;2023-07-31T11:20:46;100695.66;;;18.03;85.66
81812;BME280;71243;51.848;5.768;2023-07-31T11:23:11;100694.63;;;18.04;85.56
81812;BME280;71243;51.848;5.768;2023-07-31T11:25:38;100701.63;;;18.05;85.98
81812;BME280;71243;51.848;5.768;2023-07-31T11:28:05;100703.91;;;18.08;85.30
81812;BME280;71243;51.848;5.768;2023-07-31T11:30:31;100698.16;;;18.11;85.69
81812;BME280;71243;51.848;5.768;2023-07-31T11:32:57;100708.03;;;18.11;85.60
81812;BME280;71243;51.848;5.768;2023-07-31T11:35:22;100700.03;;;18.11;85.85
81812;BME280;71243;51.848;5.768;2023-07-31T11:37:47;100697.78;;;18.14;85.30
81812;BME280;71243;51.848;5.768;2023-07-31T11:40:13;100703.13;;;18.14;85.08
81812;BME280;71243;51.848;5.768;2023-07-31T11:42:38;100695.50;;;18.18;84.58
81812;BME280;71243;51.848;5.768;2023-07-31T11:45:04;100693.66;;;18.18;85.43
81812;BME280;71243;51.848;5.768;2023-07-31T11:47:30;100693.84;;;18.23;84.65
81812;BME280;71243;51.848;5.768;2023-07-31T11:49:57;100696.97;;;18.27;85.17
81812;BME280;71243;51.848;5.768;2023-07-31T11:52:23;100691.84;;;18.32;85.08
81812;BME280;71243;51.848;5.768;2023-07-31T11:54:49;100692.88;;;18.37;85.36
81812;BME280;71243;51.848;5.768;2023-07-31T11:57:15;100692.88;;;18.37;85.84
81812;BME280;71243;51.848;5.768;2023-07-31T11:59:41;100687.53;;;18.37;85.35
81812;BME280;71243;51.848;5.768;2023-07-31T12:02:07;100690.81;;;18.33;85.11
81812;BME280;71243;51.848;5.768;2023-07-31T12:04:33;100692.03;;;18.30;86.07
81812;BME280;71243;51.848;5.768;2023-07-31T12:07:00;100690.81;;;18.26;86.11
81812;BME280;71243;51.848;5.768;2023-07-31T12:09:25;100694.28;;;18.27;86.42
81812;BME280;71243;51.848;5.768;2023-07-31T12:11:51;100689.78;;;18.27;85.73
81812;BME280;71243;51.848;5.768;2023-07-31T12:14:27;100685.88;;;18.30;85.51
81812;BME280;71243;51.848;5.768;2023-07-31T12:16:58;100692.44;;;18.27;86.07
81812;BME280;71243;51.848;5.768;2023-07-31T12:19:25;100701.09;;;18.23;86.72
81812;BME280;71243;51.848;5.768;2023-07-31T12:21:51;100701.88;;;18.23;87.38
81812;BME280;71243;51.848;5.768;2023-07-31T12:24:18;100702.50;;;18.12;87.02
81812;BME280;71243;51.848;5.768;2023-07-31T12:26:45;100709.47;;;18.07;88.29
81812;BME280;71243;51.848;5.768;2023-07-31T12:29:11;100698.56;;;18.08;87.62
81812;BME280;71243;51.848;5.768;2023-07-31T12:31:36;100705.13;;;18.06;87.49
81812;BME280;71243;51.848;5.768;2023-07-31T12:34:01;100689.47;;;18.03;87.39
81812;BME280;71243;51.848;5.768;2023-07-31T12:36:26;100680.03;;;18.00;87.26
81812;BME280;71243;51.848;5.768;2023-07-31T12:38:52;100681.47;;;18.03;87.55
81812;BME280;71243;51.848;5.768;2023-07-31T12:41:18;100674.69;;;18.07;87.59
81812;BME280;71243;51.848;5.768;2023-07-31T12:43:45;100676.75;;;18.11;87.74
81812;BME280;71243;51.848;5.768;2023-07-31T12:46:10;100667.53;;;18.14;87.29
81812;BME280;71243;51.848;5.768;2023-07-31T12:48:37;100665.06;;;18.12;87.49
81812;BME280;71243;51.848;5.768;2023-07-31T12:51:02;100662.78;;;18.16;87.20
81812;BME280;71243;51.848;5.768;2023-07-31T12:53:28;100669.19;;;18.21;87.66
81812;BME280;71243;51.848;5.768;2023-07-31T12:55:54;100672.03;;;18.20;87.81
81812;BME280;71243;51.848;5.768;2023-07-31T12:58:20;100669.41;;;18.26;87.00